Time;durP1;ratioP1;P1;durP2;ratioP2;P2;SDS_P1;SDS_P2;PMS_P1;PMS_P2;Temp;Humidity;BMP_temperature;BMP_pressure;BME280_temperature;BME280_humidity;BME280_pressure;Samples;Min_cycle;Max_cycle;Signal;HPM_P1;HPM_P2
2021/01/20 00:00:38;;;;;;;;;;;;;;;17.45;62.05;101266.31;4932168;29;1096;-69
2021/01/20 00:03:04;;;;;;;;;;;;;;;17.45;62.02;101269.81;4950401;29;1232;-69
2021/01/20 00:05:31;;;;;;;;;;;;;;;17.46;62.17;101262.78;4964712;28;1906;-70
2021/01/20 00:07:57;;;;;;;;;;;;;;;17.46;62.29;101262.78;4970114;28;1229;-68
2021/01/20 00:10:23;;;;;;;;;;;;;;;17.44;62.37;101256.72;4969952;28;1148;-67
2021/01/20 00:12:53;;;;;;;;;;;;;;;17.41;62.14;101257.72;4953140;28;1447;-69
2021/01/20 00:15:23;;;;;;;;;;;;;;;17.42;62.26;101254.13;4969932;28;930;-68
2021/01/20 00:17:50;;;;;;;;;;;;;;;17.41;62.37;101256.84;4952229;28;1422;-68
2021/01/20 00:20:16;;;;;;;;;;;;;;;17.38;62.48;101241.19;4959648;28;1611;-68
2021/01/20 00:22:46;;;;;;;;;;;;;;;17.38;62.24;101246.47;4969962;28;1232;-68
2021/01/20 00:25:16;;;;;;;;;;;;;;;17.37;62.37;101239.47;4951417;28;1983;-68
2021/01/20 00:27:42;;;;;;;;;;;;;;;17.39;62.25;101240.25;4963025;28;1268;-69
2021/01/20 00:30:09;;;;;;;;;;;;;;;17.34;62.38;101240.47;4950651;29;1147;-69
2021/01/20 00:32:35;;;;;;;;;;;;;;;17.33;62.42;101236.09;4950812;29;1186;-70
2021/01/20 00:35:06;;;;;;;;;;;;;;;17.32;62.43;101225.66;4933145;29;1214;-70
2021/01/20 00:37:34;;;;;;;;;;;;;;;17.32;62.53;101221.25;4933558;29;1234;-70
2021/01/20 00:40:01;;;;;;;;;;;;;;;17.31;62.29;101222.16;4950835;29;1039;-70
2021/01/20 00:42:28;;;;;;;;;;;;;;;17.30;62.53;101216.94;4953897;29;1237;-69
2021/01/20 00:44:54;;;;;;;;;;;;;;;17.29;62.47;101215.25;4957560;28;1978;-68
2021/01/20 00:47:20;;;;;;;;;;;;;;;17.29;62.60;101216.13;4939886;29;1340;-68
2021/01/20 00:49:47;;;;;;;;;;;;;;;17.30;62.45;101216.94;4954059;28;1105;-69
2021/01/20 00:52:15;;;;;;;;;;;;;;;17.28;62.47;101216.16;4937192;29;1214;-69
2021/01/20 00:54:41;;;;;;;;;;;;;;;17.26;62.52;101211.00;4954143;29;1045;-69
2021/01/20 00:57:08;;;;;;;;;;;;;;;17.27;62.53;101217.06;4954841;29;1108;-69
2021/01/20 00:59:34;;;;;;;;;;;;;;;17.26;62.47;101215.38;4969596;28;1210;-68
2021/01/20 01:02:00;;;;;;;;;;;;;;;17.24;62.43;101207.53;4973682;28;1190;-70
2021/01/20 01:04:27;;;;;;;;;;;;;;;17.23;62.73;101205.00;4955779;28;1989;-70
2021/01/20 01:06:53;;;;;;;;;;;;;;;17.21;62.69;101207.66;4973684;28;1226;-70
2021/01/20 01:09:20;;;;;;;;;;;;;;;17.21;62.60;101204.19;4955725;28;1321;-69
2021/01/20 01:11:46;;;;;;;;;;;;;;;17.20;62.56;101198.09;4973216;28;1197;-68
2021/01/20 01:14:12;;;;;;;;;;;;;;;17.19;62.72;101193.72;4955439;28;1328;-70
2021/01/20 01:16:38;;;;;;;;;;;;;;;17.20;62.73;101186.69;4955784;28;1332;-68
2021/01/20 01:19:07;;;;;;;;;;;;;;;17.16;62.81;101178.06;4956064;28;1233;-68
2021/01/20 01:21:34;;;;;;;;;;;;;;;17.20;62.44;101184.06;4972841;28;1137;-69
2021/01/20 01:24:00;;;;;;;;;;;;;;;17.17;62.64;101186.84;4972593;28;1914;-69
2021/01/20 01:26:27;;;;;;;;;;;;;;;17.14;62.90;101187.81;4972860;28;1105;-68
2021/01/20 01:28:53;;;;;;;;;;;;;;;17.16;62.74;101187.75;4955353;28;1222;-69
2021/01/20 01:31:19;;;;;;;;;;;;;;;17.16;62.66;101196.50;4973553;28;926;-69
2021/01/20 01:33:46;;;;;;;;;;;;;;;17.15;62.78;101186.88;4973277;28;1292;-68
2021/01/20 01:36:12;;;;;;;;;;;;;;;17.13;62.68;101190.50;4973148;28;1131;-69
2021/01/20 01:38:38;;;;;;;;;;;;;;;17.14;62.78;101189.59;4972124;28;1174;-70
2021/01/20 01:41:04;;;;;;;;;;;;;;;17.14;62.71;101195.72;4955197;28;1223;-71
2021/01/20 01:43:31;;;;;;;;;;;;;;;17.12;62.78;101186.16;4955043;28;1333;-70
2021/01/20 01:45:57;;;;;;;;;;;;;;;17.12;62.88;101194.03;4972726;28;1985;-68
2021/01/20 01:48:23;;;;;;;;;;;;;;;17.11;62.71;101182.69;4955166;28;1246;-67
2021/01/20 01:50:49;;;;;;;;;;;;;;;17.09;62.82;101175.75;4972621;28;927;-69
2021/01/20 01:53:16;;;;;;;;;;;;;;;17.09;63.01;101181.03;4972450;28;1308;-69
2021/01/20 01:55:43;;;;;;;;;;;;;;;17.09;62.79;101173.13;4972469;28;1197;-69
2021/01/20 01:58:09;;;;;;;;;;;;;;;17.09;63.00;101183.66;4971416;28;1210;-69
2021/01/20 02:00:36;;;;;;;;;;;;;;;17.08;62.89;101174.06;4972322;28;1013;-69
2021/01/20 02:03:02;;;;;;;;;;;;;;;17.08;62.94;101169.66;4954758;28;1330;-69
2021/01/20 02:05:28;;;;;;;;;;;;;;;17.08;63.01;101180.19;4971916;28;1907;-69
2021/01/20 02:07:55;;;;;;;;;;;;;;;17.06;63.01;101175.88;4971883;28;1182;-69
2021/01/20 02:10:22;;;;;;;;;;;;;;;17.07;63.20;101172.34;4971741;28;894;-69
2021/01/20 02:13:07;;;;;;;;;;;;;;;17.07;63.22;101177.59;4972090;28;1336;-69
2021/01/20 02:15:34;;;;;;;;;;;;;;;17.07;63.13;101169.72;4954419;28;1230;-70
2021/01/20 02:18:13;;;;;;;;;;;;;;;17.03;62.95;101165.50;4957371;28;1632;-70
2021/01/20 02:20:58;;;;;;;;;;;;;;;17.02;63.05;101153.28;4935526;29;1190;-69
2021/01/20 02:23:25;;;;;;;;;;;;;;;17.04;63.05;101144.38;4963292;28;1367;-69
2021/01/20 02:25:51;;;;;;;;;;;;;;;17.01;63.29;101143.66;4971987;28;1910;-70
2021/01/20 02:28:24;;;;;;;;;;;;;;;17.01;63.07;101141.03;4954761;28;1313;-70
2021/01/20 02:30:50;;;;;;;;;;;;;;;16.99;63.28;101138.47;4971816;28;1050;-69
2021/01/20 02:33:26;;;;;;;;;;;;;;;16.97;63.37;101140.31;4971666;28;1210;-70
2021/01/20 02:35:58;;;;;;;;;;;;;;;17.00;63.10;101129.63;4959781;28;1078;-70
2021/01/20 02:38:25;;;;;;;;;;;;;;;16.99;63.23;101130.59;4952064;28;1182;-70
2021/01/20 02:40:51;;;;;;;;;;;;;;;16.98;63.24;101128.00;4952026;29;1157;-69
2021/01/20 02:43:23;;;;;;;;;;;;;;;16.99;63.38;101127.09;4952113;28;1261;-69
2021/01/20 02:45:50;;;;;;;;;;;;;;;16.96;63.28;101128.09;4918887;29;2004;-70
2021/01/20 02:48:16;;;;;;;;;;;;;;;16.96;63.31;101127.22;4934795;29;1249;-71
2021/01/20 02:50:46;;;;;;;;;;;;;;;16.91;63.44;101109.84;4952261;29;1047;-70
2021/01/20 02:53:13;;;;;;;;;;;;;;;16.96;63.40;101121.97;4952156;29;1313;-71
2021/01/20 02:55:46;;;;;;;;;;;;;;;16.96;63.57;101116.69;4952340;29;1004;-70
2021/01/20 02:58:14;;;;;;;;;;;;;;;16.94;63.29;101106.22;4951840;29;1332;-70
2021/01/20 03:00:41;;;;;;;;;;;;;;;16.92;63.58;101100.19;4953343;28;928;-70
2021/01/20 03:03:09;;;;;;;;;;;;;;;16.92;63.48;101095.78;4971184;28;1324;-70
2021/01/20 03:05:37;;;;;;;;;;;;;;;16.93;63.37;101086.94;4971148;28;1969;-70
2021/01/20 03:08:04;;;;;;;;;;;;;;;16.92;63.54;101090.50;4970823;28;1202;-69
2021/01/20 03:10:30;;;;;;;;;;;;;;;16.84;63.57;101076.81;4970569;28;1142;-71
2021/01/20 03:12:57;;;;;;;;;;;;;;;16.92;63.56;101085.25;4970700;28;1273;-72
2021/01/20 03:15:28;;;;;;;;;;;;;;;16.92;63.47;101084.41;4953833;28;1166;-72
2021/01/20 03:17:54;;;;;;;;;;;;;;;16.91;63.49;101080.03;4970871;28;1300;-70
2021/01/20 03:20:21;;;;;;;;;;;;;;;16.90;63.51;101076.53;4953463;28;899;-71
2021/01/20 03:22:48;;;;;;;;;;;;;;;16.88;63.49;101077.53;4953682;28;1238;-70
2021/01/20 03:25:14;;;;;;;;;;;;;;;16.91;63.33;101083.53;4970793;28;1914;-70
2021/01/20 03:27:40;;;;;;;;;;;;;;;16.91;63.36;101083.53;4953419;28;1236;-70
2021/01/20 03:30:07;;;;;;;;;;;;;;;16.89;63.59;101085.38;4970749;28;1040;-70
2021/01/20 03:32:33;;;;;;;;;;;;;;;16.87;63.48;101071.41;4970129;28;1229;-70
2021/01/20 03:35:00;;;;;;;;;;;;;;;16.87;63.60;101070.59;4970884;28;1051;-70
2021/01/20 03:37:26;;;;;;;;;;;;;;;16.85;63.51;101060.13;4953396;28;1221;-69
2021/01/20 03:39:52;;;;;;;;;;;;;;;16.85;63.53;101057.50;4970723;28;1082;-70
2021/01/20 03:42:19;;;;;;;;;;;;;;;16.88;63.50;101057.34;4970407;28;1234;-69
2021/01/20 03:44:45;;;;;;;;;;;;;;;16.87;63.41;101052.19;4970352;28;1947;-70
2021/01/20 03:47:11;;;;;;;;;;;;;;;16.86;63.40;101053.94;4970587;28;862;-70
2021/01/20 03:49:38;;;;;;;;;;;;;;;16.85;63.43;101051.38;4971100;28;1364;-70
2021/01/20 03:52:04;;;;;;;;;;;;;;;16.84;63.47;101052.31;4970804;28;1228;-70
2021/01/20 03:54:30;;;;;;;;;;;;;;;16.82;63.67;101040.97;4970305;28;1226;-70
2021/01/20 03:56:57;;;;;;;;;;;;;;;16.83;63.73;101037.44;4970818;28;1193;-70
2021/01/20 03:59:23;;;;;;;;;;;;;;;16.82;63.67;101033.94;4970374;28;1230;-70
2021/01/20 04:01:50;;;;;;;;;;;;;;;16.83;63.47;101040.94;4953103;28;1262;-70
2021/01/20 04:04:16;;;;;;;;;;;;;;;16.83;63.49;101033.03;4970295;28;1898;-71
2021/01/20 04:06:44;;;;;;;;;;;;;;;16.82;63.47;101023.41;4952498;28;1100;-69
2021/01/20 04:09:11;;;;;;;;;;;;;;;16.83;63.48;101025.16;4970246;28;1206;-71
2021/01/20 04:11:37;;;;;;;;;;;;;;;16.80;63.66;101027.91;4970473;28;1043;-69
2021/01/20 04:14:03;;;;;;;;;;;;;;;16.81;63.64;101011.19;4952945;28;1221;-69
2021/01/20 04:16:29;;;;;;;;;;;;;;;16.83;63.55;101011.13;4970146;28;1186;-68
2021/01/20 04:18:56;;;;;;;;;;;;;;;16.82;63.63;101007.63;4952776;28;1277;-68
2021/01/20 04:21:22;;;;;;;;;;;;;;;16.82;63.72;100999.75;4953529;28;1186;-68
2021/01/20 04:23:48;;;;;;;;;;;;;;;16.83;63.61;101000.59;4973847;28;1340;-68
2021/01/20 04:26:15;;;;;;;;;;;;;;;16.80;63.59;100993.72;4956705;28;1910;-67
2021/01/20 04:28:41;;;;;;;;;;;;;;;16.78;63.88;100986.78;4973949;28;1224;-67
2021/01/20 04:31:07;;;;;;;;;;;;;;;16.79;63.64;100977.97;4973923;28;1402;-69
2021/01/20 04:33:34;;;;;;;;;;;;;;;16.79;63.72;100983.22;4956167;28;1347;-72
2021/01/20 04:36:00;;;;;;;;;;;;;;;16.78;63.80;100982.38;4956219;28;1356;-71
2021/01/20 04:38:27;;;;;;;;;;;;;;;16.78;63.71;100971.84;4972957;28;1174;-71
2021/01/20 04:40:54;;;;;;;;;;;;;;;16.78;63.69;100974.47;4947559;29;1532;-71
2021/01/20 04:43:20;;;;;;;;;;;;;;;16.77;63.86;100975.44;4940229;28;1312;-71
2021/01/20 04:45:50;;;;;;;;;;;;;;;16.75;63.88;100972.00;4973518;28;1906;-71
2021/01/20 04:48:19;;;;;;;;;;;;;;;16.77;63.80;100970.16;4967125;28;1312;-70
2021/01/20 04:50:48;;;;;;;;;;;;;;;16.76;63.85;100957.94;4954478;29;1099;-71
2021/01/20 04:53:15;;;;;;;;;;;;;;;16.75;63.91;100957.97;4937121;29;1214;-72
2021/01/20 04:55:43;;;;;;;;;;;;;;;16.75;64.06;100955.34;4954609;29;1035;-72
2021/01/20 04:58:10;;;;;;;;;;;;;;;16.74;63.78;100954.53;4937128;29;1305;-72
2021/01/20 05:00:37;;;;;;;;;;;;;;;16.76;63.91;100952.66;4950220;28;1086;-72
2021/01/20 05:03:07;;;;;;;;;;;;;;;16.74;63.78;100965.03;4973440;28;1314;-72
2021/01/20 05:05:34;;;;;;;;;;;;;;;16.74;63.69;100957.16;4954107;28;1919;-71
2021/01/20 05:08:20;;;;;;;;;;;;;;;16.73;63.79;100957.19;4953874;29;1355;-72
2021/01/20 05:10:47;;;;;;;;;;;;;;;16.75;63.84;100952.72;4936727;29;1197;-71
2021/01/20 05:13:26;;;;;;;;;;;;;;;16.74;63.82;100948.41;4938332;28;1278;-71
2021/01/20 05:15:54;;;;;;;;;;;;;;;16.72;63.77;100948.44;4955578;28;1190;-72
2021/01/20 05:18:20;;;;;;;;;;;;;;;16.71;63.83;100946.78;4972965;28;1315;-71
2021/01/20 05:20:47;;;;;;;;;;;;;;;16.74;63.74;100941.38;4955450;28;1070;-75
2021/01/20 05:23:14;;;;;;;;;;;;;;;16.71;63.89;100948.53;4955551;28;1182;-68
2021/01/20 05:25:44;;;;;;;;;;;;;;;16.70;63.80;100952.94;4955255;28;1919;-69
2021/01/20 05:28:24;;;;;;;;;;;;;;;16.70;63.90;100954.72;4972842;28;1221;-69
2021/01/20 05:30:50;;;;;;;;;;;;;;;16.71;63.80;100949.41;4972961;28;1042;-69
2021/01/20 05:33:19;;;;;;;;;;;;;;;16.71;63.87;100953.81;4953951;28;1320;-69
2021/01/20 05:36:02;;;;;;;;;;;;;;;16.71;64.04;100953.81;4939502;28;1189;-71
2021/01/20 05:38:41;;;;;;;;;;;;;;;16.72;64.07;100956.34;4972687;28;1316;-70
2021/01/20 05:41:23;;;;;;;;;;;;;;;16.70;64.14;100947.69;4973118;28;1061;-71
2021/01/20 05:43:51;;;;;;;;;;;;;;;16.70;64.00;100947.69;4973096;28;1332;-70
2021/01/20 05:46:37;;;;;;;;;;;;;;;16.71;64.09;100949.41;4973034;28;1985;-69
2021/01/20 05:49:04;;;;;;;;;;;;;;;16.70;64.01;100952.09;4938855;28;1358;-68
2021/01/20 05:51:40;;;;;;;;;;;;;;;16.68;64.02;100946.91;4972826;28;1167;-67
2021/01/20 05:54:06;;;;;;;;;;;;;;;16.67;64.13;100952.22;4972533;28;1324;-69
2021/01/20 05:56:33;;;;;;;;;;;;;;;16.66;64.29;100938.22;4972896;28;1029;-68
2021/01/20 05:58:59;;;;;;;;;;;;;;;16.66;64.00;100946.09;4967662;28;1614;-69
2021/01/20 06:01:26;;;;;;;;;;;;;;;16.67;64.12;100939.94;4953087;28;888;-69
2021/01/20 06:03:53;;;;;;;;;;;;;;;16.67;64.20;100945.19;4952563;28;1254;-69
2021/01/20 06:06:20;;;;;;;;;;;;;;;16.65;64.15;100944.41;4941010;28;1922;-69
2021/01/20 06:08:47;;;;;;;;;;;;;;;16.67;64.12;100953.06;4935209;29;1282;-69
2021/01/20 06:11:13;;;;;;;;;;;;;;;16.65;64.18;100954.94;4935895;29;1064;-68
2021/01/20 06:13:40;;;;;;;;;;;;;;;16.64;64.33;100950.59;4969605;28;1383;-71
2021/01/20 06:16:14;;;;;;;;;;;;;;;16.65;64.26;100954.94;4958496;28;1016;-69
2021/01/20 06:18:54;;;;;;;;;;;;;;;16.65;64.13;100948.81;4954947;28;1332;-68
2021/01/20 06:21:20;;;;;;;;;;;;;;;16.65;64.22;100943.56;4954252;28;1254;-67
2021/01/20 06:23:50;;;;;;;;;;;;;;;16.70;64.20;100945.06;4947246;29;1281;-70
2021/01/20 06:26:26;;;;;;;;;;;;;;;16.68;64.14;100933.75;4952644;29;1999;-69
2021/01/20 06:29:06;;;;;;;;;;;;;;;16.72;64.10;100937.06;4952380;28;1283;-69
2021/01/20 06:31:37;;;;;;;;;;;;;;;16.70;64.25;100925.78;4952338;29;970;-68
2021/01/20 06:34:04;;;;;;;;;;;;;;;16.67;64.40;100928.53;4952330;29;1282;-70
2021/01/20 06:36:33;;;;;;;;;;;;;;;16.80;64.41;100925.31;4919342;29;981;-68
2021/01/20 06:39:00;;;;;;;;;;;;;;;16.78;64.22;100919.25;4952515;28;1277;-70
2021/01/20 06:41:36;;;;;;;;;;;;;;;16.77;64.36;100922.81;4935017;29;851;-70
2021/01/20 06:44:07;;;;;;;;;;;;;;;16.86;64.64;100930.28;4951275;28;1293;-72
2021/01/20 06:46:33;;;;;;;;;;;;;;;16.91;64.45;100923.03;4969414;28;1976;-69
2021/01/20 06:49:01;;;;;;;;;;;;;;;16.87;64.13;100917.97;4971689;28;1359;-70
2021/01/20 06:51:29;;;;;;;;;;;;;;;16.80;64.42;100912.16;4964690;28;815;-68
2021/01/20 06:56:38;;;;;;;;;;;;;;;16.92;64.34;100906.31;4971287;28;811;-68
2021/01/20 06:59:14;;;;;;;;;;;;;;;17.07;64.29;100898.63;4966262;28;1324;-69
2021/01/20 07:01:41;;;;;;;;;;;;;;;16.98;64.15;100897.28;4934528;29;990;-73
2021/01/20 07:04:07;;;;;;;;;;;;;;;16.85;64.36;100902.25;4949733;28;1869;-69
2021/01/20 07:06:38;;;;;;;;;;;;;;;16.81;64.10;100895.41;4933010;29;1983;-71
2021/01/20 07:09:11;;;;;;;;;;;;;;;16.74;64.55;100896.66;4933708;29;1321;-71
2021/01/20 07:11:56;;;;;;;;;;;;;;;16.74;64.50;100890.53;4950343;28;1889;-70
2021/01/20 07:14:29;;;;;;;;;;;;;;;16.74;64.38;100885.28;4933184;29;1349;-74
2021/01/20 07:16:56;;;;;;;;;;;;;;;16.72;64.49;100887.09;4917476;29;1282;-72
2021/01/20 07:19:23;;;;;;;;;;;;;;;16.71;64.58;100882.78;4932995;29;1794;-70
2021/01/20 07:21:49;;;;;;;;;;;;;;;16.70;64.33;100883.69;4930919;28;1304;-73
2021/01/20 07:24:15;;;;;;;;;;;;;;;16.69;64.32;100882.84;4951802;28;1360;-72
2021/01/20 07:26:42;;;;;;;;;;;;;;;16.68;64.41;100889.03;4951505;28;1902;-71
2021/01/20 07:29:18;;;;;;;;;;;;;;;16.68;64.26;100890.81;4951220;28;1233;-72
2021/01/20 07:31:45;;;;;;;;;;;;;;;16.68;64.51;100890.81;4969212;28;843;-70
2021/01/20 07:34:12;;;;;;;;;;;;;;;16.69;64.45;100890.72;4951518;28;1392;-69
2021/01/20 07:36:39;;;;;;;;;;;;;;;16.68;64.21;100875.88;4948748;28;1904;-70
2021/01/20 07:39:18;;;;;;;;;;;;;;;16.66;64.30;100877.72;4949582;28;1325;-71
2021/01/20 07:41:52;;;;;;;;;;;;;;;16.68;64.33;100875.03;4932773;29;1280;-69
2021/01/20 07:44:19;;;;;;;;;;;;;;;16.65;64.33;100873.41;4949950;29;1599;-70
2021/01/20 07:46:45;;;;;;;;;;;;;;;16.67;64.31;100874.16;4932432;29;1906;-71
2021/01/20 07:49:12;;;;;;;;;;;;;;;16.64;64.37;100874.31;4932578;29;1319;-70
2021/01/20 07:51:39;;;;;;;;;;;;;;;16.68;64.25;100870.63;4936907;28;1311;-71
2021/01/20 07:54:06;;;;;;;;;;;;;;;16.67;64.30;100871.53;4941836;29;1281;-70
2021/01/20 08:06:43;;;;;;;;;;;;;;;17.11;63.94;100880.00;5008800;23;2052;-68
2021/01/20 08:09:10;;;;;;;;;;;;;;;16.99;63.52;100877.94;4931771;29;1324;-68
2021/01/20 08:11:56;;;;;;;;;;;;;;;16.94;63.46;100880.78;4949782;28;1868;-69
2021/01/20 08:15:10;;;;;;;;;;;;;;;16.95;63.70;100879.00;4902887;28;1482;-68
2021/01/20 08:21:13;;;;;;;;;;;;;;;17.09;63.24;100875.69;5139053;23;2130;-69
2021/01/20 08:24:10;;;;;;;;;;;;;;;;;;;;;
2021/01/20 08:27:02;;;;;;;;;;;;;;;17.36;63.61;100869.09;4884319;29;1190;-69
2021/01/20 08:29:28;;;;;;;;;;;;;;;17.42;62.50;100863.53;4886269;29;1321;-68
2021/01/20 08:32:10;;;;;;;;;;;;;;;17.47;62.31;100861.53;4902823;29;1195;-68
2021/01/20 08:34:41;;;;;;;;;;;;;;;17.52;61.95;100859.50;4871789;29;1449;-68
2021/01/20 08:37:09;;;;;;;;;;;;;;;17.55;62.13;100855.91;4887154;29;1159;-68
2021/01/20 08:39:37;;;;;;;;;;;;;;;17.58;62.47;100863.66;4887619;29;1186;-68
2021/01/20 08:45:56;;;;;;;;;;;;;;;17.82;62.26;100855.34;4831450;29;1974;-70
2021/01/20 08:48:28;;;;;;;;;;;;;;;17.80;61.60;100851.97;4903961;29;1250;-69
2021/01/20 08:50:56;;;;;;;;;;;;;;;17.81;61.92;100853.66;4889838;29;1222;-68
2021/01/20 08:53:26;;;;;;;;;;;;;;;17.84;61.85;100858.75;4869971;29;1274;-68
2021/01/20 08:55:55;;;;;;;;;;;;;;;17.87;62.07;100863.03;4860544;29;1324;-69
2021/01/20 08:58:22;;;;;;;;;;;;;;;17.85;62.08;100857.84;4858342;29;1539;-67
2021/01/20 09:01:04;;;;;;;;;;;;;;;17.89;61.93;100861.16;4876591;29;1320;-68
2021/01/20 09:03:34;;;;;;;;;;;;;;;17.94;62.10;100860.00;4875255;29;1329;-67
2021/01/20 09:06:01;;;;;;;;;;;;;;;17.96;62.06;100858.13;4939497;28;1968;-69
2021/01/20 09:08:29;;;;;;;;;;;;;;;17.97;62.15;100861.63;4925225;29;1245;-71
2021/01/20 09:10:56;;;;;;;;;;;;;;;18.00;61.80;100861.47;4934089;29;1139;-70
2021/01/20 09:13:22;;;;;;;;;;;;;;;18.03;61.98;100862.16;4935992;28;1395;-68
2021/01/20 09:15:50;;;;;;;;;;;;;;;18.06;61.76;100855.00;4936742;28;1115;-72
2021/01/20 09:18:17;;;;;;;;;;;;;;;18.05;61.58;100853.31;4939568;29;1561;-70
2021/01/20 09:20:43;;;;;;;;;;;;;;;18.04;61.90;100857.75;4949410;28;1184;-71
2021/01/20 09:23:13;;;;;;;;;;;;;;;18.06;62.07;100855.00;4971612;28;1174;-71
2021/01/20 09:25:39;;;;;;;;;;;;;;;18.04;61.83;100852.47;4957207;28;1914;-70
2021/01/20 09:28:06;;;;;;;;;;;;;;;18.03;62.09;100846.34;4932475;29;1297;-70
2021/01/20 09:30:33;;;;;;;;;;;;;;;18.06;61.88;100849.75;4924323;29;1585;-68
2021/01/20 09:32:59;;;;;;;;;;;;;;;18.07;61.63;100848.81;4951862;28;1449;-67
2021/01/20 09:35:26;;;;;;;;;;;;;;;18.07;61.80;100846.19;4929637;29;1601;-71
2021/01/20 09:37:53;;;;;;;;;;;;;;;18.08;61.64;100848.75;4941871;29;1329;-72
2021/01/20 09:40:21;;;;;;;;;;;;;;;18.06;61.79;100839.19;4937962;28;1110;-73
2021/01/20 09:42:48;;;;;;;;;;;;;;;18.02;61.74;100836.72;4953559;28;1293;-72
2021/01/20 09:45:15;;;;;;;;;;;;;;;18.04;61.72;100847.19;4965034;28;1910;-70
2021/01/20 09:47:45;;;;;;;;;;;;;;;18.03;61.63;100854.25;4932943;29;1297;-70
2021/01/20 09:50:16;;;;;;;;;;;;;;;18.00;62.00;100851.78;4914829;29;1463;-71
2021/01/20 09:52:47;;;;;;;;;;;;;;;17.94;61.54;100840.69;4915488;29;1321;-71
2021/01/20 09:55:14;;;;;;;;;;;;;;;18.00;62.11;100851.78;4932364;29;988;-73
2021/01/20 09:57:41;;;;;;;;;;;;;;;18.03;61.44;100856.03;4931657;29;1391;-72
2021/01/20 10:00:08;;;;;;;;;;;;;;;18.02;61.56;100854.34;4933672;28;1085;-70
2021/01/20 10:02:35;;;;;;;;;;;;;;;18.00;61.72;100856.19;4951143;28;1285;-70
2021/01/20 10:05:01;;;;;;;;;;;;;;;18.04;61.90;100849.84;4950301;28;1911;-71
2021/01/20 10:07:28;;;;;;;;;;;;;;;17.97;62.27;100845.81;4950809;28;1413;-69
2021/01/20 10:09:54;;;;;;;;;;;;;;;17.93;62.11;100837.19;4950515;29;1097;-72
2021/01/20 10:12:20;;;;;;;;;;;;;;;17.96;61.87;100836.22;4952284;28;1801;-70
2021/01/20 10:14:48;;;;;;;;;;;;;;;17.93;62.21;100837.19;4924825;29;1770;-70
2021/01/20 10:17:15;;;;;;;;;;;;;;;17.94;62.01;100841.56;4932512;29;1587;-70
2021/01/20 10:19:41;;;;;;;;;;;;;;;17.97;62.31;100827.34;4947806;28;1880;-74
2021/01/20 10:22:07;;;;;;;;;;;;;;;18.10;61.75;100831.06;4920027;29;1739;-70
2021/01/20 10:24:34;;;;;;;;;;;;;;;18.10;61.84;100822.28;4921007;29;1450;-72
2021/01/20 10:27:01;;;;;;;;;;;;;;;18.11;61.67;100824.00;4947430;28;1962;-72
2021/01/20 10:29:28;;;;;;;;;;;;;;;18.01;62.10;100816.59;4919486;29;1731;-74
2021/01/20 10:31:55;;;;;;;;;;;;;;;17.97;62.04;100817.66;4929861;29;1138;-74
2021/01/20 10:34:22;;;;;;;;;;;;;;;17.93;61.98;100797.66;4933251;29;1226;-74
2021/01/20 10:36:48;;;;;;;;;;;;;;;17.91;62.70;100798.69;4922080;29;1719;-73
2021/01/20 10:39:14;;;;;;;;;;;;;;;17.90;62.57;100797.00;4950308;28;1151;-74
2021/01/20 10:41:44;;;;;;;;;;;;;;;17.89;62.51;100790.88;4950539;28;995;-73
2021/01/20 10:44:10;;;;;;;;;;;;;;;17.89;62.80;100790.03;4950247;28;1261;-74
2021/01/20 10:46:37;;;;;;;;;;;;;;;17.88;62.84;100789.16;4932881;29;1977;-74
2021/01/20 10:49:28;;;;;;;;;;;;;;;17.88;62.92;100778.63;4940676;23;2082;-73
2021/01/20 10:52:47;;;;;;;;;;;;;;;17.86;62.48;100762.06;4930249;29;2308;-74
2021/01/20 10:55:17;;;;;;;;;;;;;;;17.86;62.83;100764.69;4930893;29;1537;-74
2021/01/20 10:57:43;;;;;;;;;;;;;;;17.86;62.94;100756.78;4913305;29;1353;-73
2021/01/20 11:00:09;;;;;;;;;;;;;;;17.83;62.95;100749.03;4913491;29;1541;-73
2021/01/20 11:02:36;;;;;;;;;;;;;;;17.88;63.10;100752.28;4930203;29;1286;-70
2021/01/20 11:05:03;;;;;;;;;;;;;;;18.05;62.87;100745.25;4930330;29;1910;-67
2021/01/20 11:07:29;;;;;;;;;;;;;;;18.02;62.68;100739.19;4930665;29;1324;-65
2021/01/20 11:09:57;;;;;;;;;;;;;;;18.01;62.50;100737.50;4930662;29;1086;-64
2021/01/20 11:12:23;;;;;;;;;;;;;;;18.02;62.38;100743.63;4930625;29;1225;-64
2021/01/20 11:14:49;;;;;;;;;;;;;;;17.87;62.81;100731.28;4930009;29;1837;-66
2021/01/20 11:17:18;;;;;;;;;;;;;;;17.78;62.55;100727.31;4930176;29;1464;-65
2021/01/20 11:19:44;;;;;;;;;;;;;;;17.76;62.59;100720.44;4930769;29;1711;-64
2021/01/20 11:22:11;;;;;;;;;;;;;;;17.71;62.62;100717.22;4930424;29;1222;-65
2021/01/20 11:24:37;;;;;;;;;;;;;;;17.69;63.03;100703.28;4936838;29;1728;-64
2021/01/20 11:27:04;;;;;;;;;;;;;;;17.65;62.79;100707.84;4915109;29;1910;-64
2021/01/20 11:29:30;;;;;;;;;;;;;;;17.68;62.65;100718.22;4929739;29;1309;-64
2021/01/20 11:31:56;;;;;;;;;;;;;;;17.63;62.29;100704.44;4930053;29;1494;-64
2021/01/20 11:34:23;;;;;;;;;;;;;;;17.61;62.27;100703.66;4913644;29;1222;-62
2021/01/20 11:36:50;;;;;;;;;;;;;;;17.62;62.13;100697.47;4930366;29;1109;-62
2021/01/20 11:39:16;;;;;;;;;;;;;;;17.64;62.36;100687.69;4930882;29;1242;-61
2021/01/20 11:41:43;;;;;;;;;;;;;;;17.63;62.16;100672.81;4930600;29;1047;-63
2021/01/20 11:44:09;;;;;;;;;;;;;;;17.64;62.23;100674.53;4897998;29;1322;-62
2021/01/20 11:46:35;;;;;;;;;;;;;;;17.65;62.24;100675.38;4930262;29;1974;-63
2021/01/20 11:49:07;;;;;;;;;;;;;;;17.69;62.04;100667.22;4912874;29;1704;-63
2021/01/20 11:51:35;;;;;;;;;;;;;;;17.71;62.55;100667.16;4928463;29;1370;-62
2021/01/20 11:54:01;;;;;;;;;;;;;;;17.76;61.90;100667.75;4927318;29;1376;-65
2021/01/20 11:56:28;;;;;;;;;;;;;;;17.73;61.74;100666.13;4928690;29;1369;-64
2021/01/20 11:58:54;;;;;;;;;;;;;;;17.75;61.81;100668.72;4930207;29;1197;-65
2021/01/20 12:01:22;;;;;;;;;;;;;;;17.76;61.77;100673.88;4929942;29;930;-65
2021/01/20 12:03:50;;;;;;;;;;;;;;;17.77;61.41;100665.06;4929988;29;1328;-64
2021/01/20 12:06:16;;;;;;;;;;;;;;;17.78;61.36;100658.00;4929967;29;1968;-62
2021/01/20 12:08:42;;;;;;;;;;;;;;;17.81;61.27;100649.94;4929579;29;1229;-65
2021/01/20 12:11:10;;;;;;;;;;;;;;;17.83;61.33;100643.63;4913331;29;2098;-63
2021/01/20 12:13:38;;;;;;;;;;;;;;;17.85;61.22;100631.22;4912952;29;1269;-63
2021/01/20 12:16:05;;;;;;;;;;;;;;;17.87;61.12;100615.34;4928836;29;858;-64
2021/01/20 12:18:31;;;;;;;;;;;;;;;17.90;60.94;100612.53;4930186;29;1246;-64
2021/01/20 12:20:59;;;;;;;;;;;;;;;17.92;60.94;100598.34;4930204;29;768;-65
2021/01/20 12:23:26;;;;;;;;;;;;;;;17.93;60.76;100594.75;4929905;29;1692;-65
2021/01/20 12:25:52;;;;;;;;;;;;;;;17.94;60.83;100580.63;4930599;29;1954;-65
2021/01/20 12:28:19;;;;;;;;;;;;;;;18.02;61.20;100583.69;4929760;29;1230;-63
2021/01/20 12:30:45;;;;;;;;;;;;;;;18.13;61.67;100566.41;4928587;29;1250;-61
2021/01/20 12:33:11;;;;;;;;;;;;;;;18.30;61.46;100566.31;4912848;29;1257;-70
2021/01/20 12:35:38;;;;;;;;;;;;;;;18.35;63.96;100565.13;4912545;29;1376;-69
2021/01/20 12:38:05;;;;;;;;;;;;;;;18.38;63.42;100566.72;4912616;29;1258;-68
2021/01/20 12:40:31;;;;;;;;;;;;;;;18.40;76.00;100564.81;4929958;29;1206;-71
2021/01/20 12:42:57;;;;;;;;;;;;;;;18.25;63.81;100557.81;4914316;29;1270;-71
2021/01/20 12:45:24;;;;;;;;;;;;;;;18.21;64.34;100558.94;4933941;29;1914;-69
2021/01/20 12:47:50;;;;;;;;;;;;;;;18.16;64.71;100551.28;4933993;29;1324;-70
2021/01/20 12:50:16;;;;;;;;;;;;;;;18.17;64.54;100549.50;4933426;29;1531;-71
2021/01/20 12:52:43;;;;;;;;;;;;;;;17.82;66.52;100544.44;4933571;29;1234;-71
2021/01/20 12:55:09;;;;;;;;;;;;;;;17.35;68.60;100539.13;4933279;29;764;-71
2021/01/20 12:57:36;;;;;;;;;;;;;;;17.23;68.76;100531.06;4916602;29;1330;-69
2021/01/20 13:00:07;;;;;;;;;;;;;;;17.21;66.08;100535.53;4933406;29;808;-69
2021/01/20 13:02:33;;;;;;;;;;;;;;;17.11;68.37;100531.72;4915915;29;1246;-69
2021/01/20 13:04:59;;;;;;;;;;;;;;;17.22;64.62;100522.28;4933840;29;1907;-69
2021/01/20 13:07:25;;;;;;;;;;;;;;;17.39;62.71;100522.22;4916453;29;1397;-70
2021/01/20 13:09:57;;;;;;;;;;;;;;;17.69;62.04;100522.34;4916331;29;1269;-68
2021/01/20 13:12:24;;;;;;;;;;;;;;;18.00;62.86;100519.66;4933054;29;1285;-71
2021/01/20 13:14:50;;;;;;;;;;;;;;;18.23;64.31;100514.88;4933391;29;1160;-65